createdAt,value
2022-10-22T00:00:09.201Z,15.56
2022-10-22T00:01:09.189Z,15.62
2022-10-22T00:02:09.217Z,15.56
2022-10-22T00:03:09.253Z,15.56
2022-10-22T00:04:09.148Z,15.52
2022-10-22T00:05:09.152Z,15.52
2022-10-22T00:06:09.130Z,15.52
2022-10-22T00:07:09.163Z,15.58
2022-10-22T00:08:09.105Z,15.56
2022-10-22T00:09:09.173Z,15.54
2022-10-22T00:10:09.098Z,15.56
2022-10-22T00:11:09.109Z,15.54
2022-10-22T00:12:09.087Z,15.60
2022-10-22T00:13:09.059Z,15.52
2022-10-22T00:14:09.042Z,15.56
2022-10-22T00:15:09.032Z,15.56
2022-10-22T00:16:09.018Z,15.48
2022-10-22T00:17:11.607Z,15.51
2022-10-22T00:18:08.998Z,15.58
2022-10-22T00:19:09.006Z,15.60
2022-10-22T00:20:08.983Z,15.52
2022-10-22T00:21:08.977Z,15.51
2022-10-22T00:22:08.992Z,15.51
2022-10-22T00:23:08.946Z,15.51
2022-10-22T00:24:08.936Z,15.56
2022-10-22T00:25:08.929Z,15.47
2022-10-22T00:26:08.916Z,15.45
2022-10-22T00:27:08.934Z,15.45
2022-10-22T00:28:08.935Z,15.47
2022-10-22T00:29:08.879Z,15.43
2022-10-22T00:30:08.870Z,15.47
2022-10-22T00:31:08.855Z,15.51
2022-10-22T00:32:08.855Z,15.43
2022-10-22T00:33:08.873Z,15.43
2022-10-22T00:34:08.829Z,15.47
2022-10-22T00:35:08.863Z,15.41
2022-10-22T00:36:08.806Z,15.50
2022-10-22T00:37:08.794Z,15.38
2022-10-22T00:38:08.793Z,15.50
2022-10-22T00:39:08.791Z,15.36
2022-10-22T00:40:08.762Z,15.48
2022-10-22T00:41:08.781Z,15.43
2022-10-22T00:42:08.752Z,15.47
2022-10-22T00:43:08.736Z,15.44
2022-10-22T00:44:08.734Z,15.41
2022-10-22T00:45:08.741Z,15.47
2022-10-22T00:46:08.707Z,15.44
2022-10-22T00:47:08.693Z,15.41
2022-10-22T00:48:08.681Z,15.45
2022-10-22T00:49:08.665Z,15.41
2022-10-22T00:50:08.683Z,15.44
2022-10-22T00:51:08.667Z,15.41
2022-10-22T00:52:08.634Z,15.41
2022-10-22T00:53:08.626Z,15.41
2022-10-22T00:54:08.607Z,15.32
2022-10-22T00:55:08.638Z,15.44
2022-10-22T00:56:08.593Z,15.33
2022-10-22T00:57:08.586Z,15.33
2022-10-22T00:58:08.576Z,15.40
2022-10-22T01:00:08.577Z,15.33
2022-10-22T01:01:08.631Z,15.36
2022-10-22T01:02:08.531Z,15.41
2022-10-22T01:03:08.521Z,15.35
2022-10-22T01:04:08.517Z,15.30
2022-10-22T01:05:08.489Z,15.38
2022-10-22T01:06:08.519Z,15.38
2022-10-22T01:07:08.502Z,15.33
2022-10-22T01:08:08.622Z,15.26
2022-10-22T01:09:08.517Z,15.40
2022-10-22T01:10:08.443Z,15.30
2022-10-22T01:11:08.466Z,15.33
2022-10-22T01:12:08.424Z,15.26
2022-10-22T01:13:08.428Z,15.29
2022-10-22T01:14:08.398Z,15.32
2022-10-22T01:15:08.396Z,15.32
2022-10-22T01:16:08.405Z,15.33
2022-10-22T01:17:08.386Z,15.23
2022-10-22T01:18:08.389Z,15.23
2022-10-22T01:19:08.350Z,15.29
2022-10-22T01:20:08.335Z,15.29
2022-10-22T01:21:08.336Z,15.29
2022-10-22T01:22:08.309Z,15.29
2022-10-22T01:23:08.319Z,15.32
2022-10-22T01:24:08.306Z,15.32
2022-10-22T01:25:08.266Z,15.25
2022-10-22T01:26:08.300Z,15.22
2022-10-22T01:27:08.278Z,15.26
2022-10-22T01:28:08.270Z,15.25
2022-10-22T01:29:08.234Z,15.23
2022-10-22T01:30:08.246Z,15.23
2022-10-22T01:31:08.237Z,15.23
2022-10-22T01:32:08.202Z,15.25
2022-10-22T01:33:08.223Z,15.26
2022-10-22T01:34:08.179Z,15.29
2022-10-22T01:35:08.172Z,15.23
2022-10-22T01:36:08.185Z,15.23
2022-10-22T01:37:08.153Z,15.26
2022-10-22T01:38:08.160Z,15.22
2022-10-22T01:39:08.159Z,15.25
2022-10-22T01:40:08.120Z,15.25
2022-10-22T01:41:08.107Z,15.15
2022-10-22T01:42:08.132Z,15.23
2022-10-22T01:43:08.105Z,15.22
2022-10-22T01:44:08.070Z,15.15
2022-10-22T01:45:08.066Z,15.25
2022-10-22T01:46:08.060Z,15.19
2022-10-22T01:47:08.065Z,15.11
2022-10-22T01:48:08.069Z,15.17
2022-10-22T01:49:08.018Z,15.11
2022-10-22T01:50:08.012Z,15.08
2022-10-22T01:51:08.000Z,15.14
2022-10-22T01:52:08.004Z,15.14
2022-10-22T01:53:07.998Z,15.12
2022-10-22T01:54:07.987Z,15.17
2022-10-22T01:55:07.974Z,15.17
2022-10-22T01:56:07.946Z,15.14
2022-10-22T01:57:07.955Z,15.22
2022-10-22T01:58:07.925Z,15.15
2022-10-22T01:59:07.910Z,15.14
2022-10-22T02:00:07.898Z,15.12
2022-10-22T02:01:07.954Z,15.19
2022-10-22T02:02:07.897Z,15.22
2022-10-22T02:03:07.903Z,15.11
2022-10-22T02:04:07.861Z,15.15
2022-10-22T02:05:07.851Z,15.05
2022-10-22T02:06:07.829Z,15.10
2022-10-22T02:07:07.821Z,15.12
2022-10-22T02:08:07.840Z,15.07
2022-10-22T02:09:07.882Z,15.10
2022-10-22T02:10:07.799Z,15.08
2022-10-22T02:11:07.810Z,15.10
2022-10-22T02:12:07.775Z,15.14
2022-10-22T02:13:07.796Z,15.08
2022-10-22T02:14:07.750Z,15.07
2022-10-22T02:15:07.733Z,15.07
2022-10-22T02:16:07.730Z,15.07
2022-10-22T02:17:07.715Z,15.04
2022-10-22T02:18:07.750Z,15.04
2022-10-22T02:19:07.691Z,15.04
2022-10-22T02:20:07.686Z,15.04
2022-10-22T02:22:07.661Z,15.04
2022-10-22T02:23:07.668Z,15.07
2022-10-22T02:24:07.666Z,15.05
2022-10-22T02:25:07.631Z,15.04
2022-10-22T02:26:07.618Z,15.04
2022-10-22T02:27:07.626Z,15.07
2022-10-22T02:28:07.637Z,15.05
2022-10-22T02:29:07.612Z,15.04
2022-10-22T02:30:07.641Z,15.07
2022-10-22T02:31:07.563Z,15.05
2022-10-22T02:32:07.579Z,15.08
2022-10-22T02:33:07.548Z,14.99
2022-10-22T02:34:07.563Z,15.05
2022-10-22T02:35:07.528Z,15.08
2022-10-22T02:36:07.516Z,15.03
2022-10-22T02:37:07.516Z,15.08
2022-10-22T02:38:07.494Z,14.99
2022-10-22T02:39:07.575Z,15.04
2022-10-22T02:40:07.471Z,15.03
2022-10-22T02:41:07.464Z,14.96
2022-10-22T02:42:07.445Z,15.03
2022-10-22T02:43:07.453Z,15.05
2022-10-22T02:44:07.448Z,14.97
2022-10-22T02:45:07.414Z,14.95
2022-10-22T02:46:07.397Z,15.04
2022-10-22T02:47:07.387Z,14.97
2022-10-22T02:48:07.506Z,14.99
2022-10-22T02:49:07.394Z,14.97
2022-10-22T02:50:09.629Z,14.93
2022-10-22T02:51:07.349Z,14.96
2022-10-22T02:52:07.328Z,14.90
2022-10-22T02:53:07.327Z,14.95
2022-10-22T02:54:07.330Z,14.95
2022-10-22T02:55:07.307Z,14.96
2022-10-22T02:56:07.292Z,14.92
2022-10-22T02:57:07.400Z,14.93
2022-10-22T02:58:07.278Z,14.90
2022-10-22T02:59:07.310Z,14.93
2022-10-22T03:00:07.262Z,14.96
2022-10-22T03:01:07.425Z,14.92
2022-10-22T03:02:07.225Z,14.95
2022-10-22T03:03:07.216Z,14.86
2022-10-22T03:04:07.205Z,14.92
2022-10-22T03:05:07.220Z,14.90
2022-10-22T03:06:07.182Z,14.93
2022-10-22T03:07:07.174Z,14.90
2022-10-22T03:08:07.163Z,14.87
2022-10-22T03:09:07.192Z,14.90
2022-10-22T03:10:07.166Z,14.92
2022-10-22T03:11:07.175Z,14.86
2022-10-22T03:12:07.124Z,14.90
2022-10-22T03:13:07.121Z,14.95
2022-10-22T03:14:07.110Z,14.96
2022-10-22T03:15:07.108Z,14.97
2022-10-22T03:16:07.071Z,14.99
2022-10-22T03:17:07.063Z,14.99
2022-10-22T03:18:07.056Z,14.87
2022-10-22T03:19:07.062Z,14.92
2022-10-22T03:20:07.046Z,14.96
2022-10-22T03:21:07.019Z,14.89
2022-10-22T03:22:07.003Z,14.92
2022-10-22T03:23:06.998Z,14.79
2022-10-22T03:24:07.029Z,14.90
2022-10-22T03:25:06.995Z,14.95
2022-10-22T03:26:06.968Z,14.89
2022-10-22T03:27:06.953Z,14.90
2022-10-22T03:28:06.941Z,14.85
2022-10-22T03:29:06.966Z,14.78
2022-10-22T03:30:06.950Z,14.92
2022-10-22T03:31:06.923Z,14.89
2022-10-22T03:32:06.899Z,14.77
2022-10-22T03:33:06.884Z,14.79
2022-10-22T03:34:06.872Z,14.74
2022-10-22T03:35:06.903Z,14.79
2022-10-22T03:36:06.864Z,14.79
2022-10-22T03:37:06.839Z,14.82
2022-10-22T03:38:06.831Z,14.85
2022-10-22T03:39:06.817Z,14.83
2022-10-22T03:40:06.828Z,14.82
2022-10-22T03:41:06.797Z,14.82
2022-10-22T03:42:06.787Z,14.82
2022-10-22T03:43:06.775Z,14.79
2022-10-22T03:44:06.769Z,14.82
2022-10-22T03:45:06.786Z,14.79
2022-10-22T03:46:06.743Z,14.82
2022-10-22T03:47:06.778Z,14.83
2022-10-22T03:48:06.716Z,14.77
2022-10-22T03:49:06.710Z,14.71
2022-10-22T03:50:06.697Z,14.71
2022-10-22T03:51:06.692Z,14.74
2022-10-22T03:52:06.698Z,14.73
2022-10-22T03:53:06.669Z,14.73
2022-10-22T03:54:06.657Z,14.77
2022-10-22T03:55:06.648Z,14.73
2022-10-22T03:56:06.659Z,14.78
2022-10-22T03:57:06.645Z,14.70
2022-10-22T03:58:06.615Z,14.69
2022-10-22T03:59:06.600Z,14.77
2022-10-22T04:00:06.590Z,14.79
2022-10-22T04:01:06.639Z,14.77
2022-10-22T04:02:06.571Z,14.74
2022-10-22T04:03:06.577Z,14.77
2022-10-22T04:04:06.553Z,14.71
2022-10-22T04:05:06.625Z,14.74
2022-10-22T04:06:06.552Z,14.79
2022-10-22T04:07:06.515Z,14.67
2022-10-22T04:08:06.497Z,14.79
2022-10-22T04:09:06.575Z,14.71
2022-10-22T04:10:06.497Z,14.74
2022-10-22T04:11:06.489Z,14.70
2022-10-22T04:12:06.462Z,14.70
2022-10-22T04:13:06.446Z,14.71
2022-10-22T04:14:06.482Z,14.66
2022-10-22T04:15:06.424Z,14.71
2022-10-22T04:16:06.443Z,14.67
2022-10-22T04:17:06.403Z,14.73
2022-10-22T04:18:06.410Z,14.67
2022-10-22T04:19:06.407Z,14.66
2022-10-22T04:20:06.366Z,14.73
2022-10-22T04:21:06.386Z,14.70
2022-10-22T04:22:06.353Z,14.67
2022-10-22T04:23:06.338Z,14.67
2022-10-22T04:24:06.320Z,14.61
2022-10-22T04:25:06.339Z,14.70
2022-10-22T04:26:06.305Z,14.64
2022-10-22T04:27:06.327Z,14.59
2022-10-22T04:28:06.278Z,14.59
2022-10-22T04:29:06.276Z,14.59
2022-10-22T04:30:06.255Z,14.70
2022-10-22T04:31:06.248Z,14.63
2022-10-22T04:32:06.269Z,14.61
2022-10-22T04:33:06.230Z,14.63
2022-10-22T04:34:06.221Z,14.63
2022-10-22T04:35:06.256Z,14.55
2022-10-22T04:36:06.204Z,14.58
2022-10-22T04:37:06.190Z,14.61
2022-10-22T04:38:06.175Z,14.59
2022-10-22T04:39:06.184Z,14.67
2022-10-22T04:40:06.167Z,14.59
2022-10-22T04:41:06.144Z,14.66
2022-10-22T04:42:06.150Z,14.67
2022-10-22T04:43:06.120Z,14.59
2022-10-22T04:44:06.128Z,14.61
2022-10-22T04:45:06.091Z,14.61
2022-10-22T04:46:06.079Z,14.66
2022-10-22T04:47:06.093Z,14.64
2022-10-22T04:48:06.065Z,14.63
2022-10-22T04:49:06.061Z,14.61
2022-10-22T04:50:06.066Z,14.58
2022-10-22T04:51:06.050Z,14.55
2022-10-22T04:52:06.051Z,14.63
2022-10-22T04:53:06.015Z,14.53
2022-10-22T04:54:06.023Z,14.59
2022-10-22T04:55:05.992Z,14.56
2022-10-22T04:56:05.974Z,14.61
2022-10-22T04:57:05.967Z,14.66
2022-10-22T04:58:05.954Z,14.59
2022-10-22T04:59:05.981Z,14.56
2022-10-22T05:00:05.937Z,14.63
2022-10-22T05:01:06.016Z,14.63
2022-10-22T05:02:05.907Z,14.63
2022-10-22T05:03:05.892Z,14.59
2022-10-22T05:04:05.909Z,14.52
2022-10-22T05:05:05.879Z,14.53
2022-10-22T05:06:05.935Z,14.59
2022-10-22T05:07:05.888Z,14.55
2022-10-22T05:08:05.844Z,14.56
2022-10-22T05:09:05.994Z,14.58
2022-10-22T05:10:05.822Z,14.63
2022-10-22T05:11:05.823Z,14.61
2022-10-22T05:12:05.803Z,14.56
2022-10-22T05:13:05.793Z,14.52
2022-10-22T05:14:05.814Z,14.59
2022-10-22T05:15:05.768Z,14.61
2022-10-22T05:16:05.762Z,14.56
2022-10-22T05:17:05.748Z,14.53
2022-10-22T05:18:05.764Z,14.58
2022-10-22T05:19:05.728Z,14.63
2022-10-22T05:20:05.711Z,14.59
2022-10-22T05:21:05.694Z,14.56
2022-10-22T05:22:05.721Z,14.53
2022-10-22T05:23:05.720Z,14.56
2022-10-22T05:24:05.670Z,14.63
2022-10-22T05:25:05.668Z,14.59
2022-10-22T05:26:05.649Z,14.52
2022-10-22T05:27:05.721Z,14.55
2022-10-22T05:28:05.624Z,14.53
2022-10-22T05:29:05.617Z,14.55
2022-10-22T05:30:05.613Z,14.55
2022-10-22T05:31:05.592Z,14.53
2022-10-22T05:32:05.583Z,14.55
2022-10-22T05:33:05.593Z,14.44
2022-10-22T05:34:05.558Z,14.55
2022-10-22T05:35:05.551Z,14.51
2022-10-22T05:36:05.539Z,14.49
2022-10-22T05:37:05.529Z,14.48
2022-10-22T05:38:05.545Z,14.53
2022-10-22T05:39:05.522Z,14.56
2022-10-22T05:40:19.084Z,14.46
2022-10-22T05:41:06.489Z,14.45
2022-10-22T05:42:05.475Z,14.48
2022-10-22T05:43:05.467Z,14.44
2022-10-22T05:44:05.470Z,14.49
2022-10-22T05:45:05.437Z,14.53
2022-10-22T05:46:05.433Z,14.48
2022-10-22T05:47:05.420Z,14.49
2022-10-22T05:48:05.406Z,14.40
2022-10-22T05:49:05.425Z,14.45
2022-10-22T05:50:05.381Z,14.55
2022-10-22T05:51:05.377Z,14.48
2022-10-22T05:52:05.392Z,14.45
2022-10-22T05:53:05.356Z,14.37
2022-10-22T05:54:05.367Z,14.45
2022-10-22T05:55:05.347Z,14.46
2022-10-22T05:56:05.321Z,14.40
2022-10-22T05:57:05.309Z,14.33
2022-10-22T05:58:05.294Z,14.37
2022-10-22T05:59:05.361Z,14.49
2022-10-22T06:00:05.282Z,14.44
2022-10-22T06:01:05.263Z,14.38
2022-10-22T06:02:05.298Z,14.37
2022-10-22T06:03:05.240Z,14.45
2022-10-22T06:04:05.258Z,14.44
2022-10-22T06:05:05.220Z,14.44
2022-10-22T06:06:05.209Z,14.40
2022-10-22T06:07:05.194Z,14.37
2022-10-22T06:08:05.199Z,14.44
2022-10-22T06:09:05.288Z,14.30
2022-10-22T06:10:05.158Z,14.36
2022-10-22T06:11:05.177Z,14.36
2022-10-22T06:12:05.139Z,14.37
2022-10-22T06:13:05.157Z,14.37
2022-10-22T06:14:05.174Z,14.34
2022-10-22T06:15:05.107Z,14.34
2022-10-22T06:16:05.095Z,14.37
2022-10-22T06:17:05.091Z,14.33
2022-10-22T06:18:05.077Z,14.33
2022-10-22T06:19:05.337Z,14.31
2022-10-22T06:21:05.061Z,14.27
2022-10-22T06:22:05.062Z,14.34
2022-10-22T06:23:05.024Z,14.26
2022-10-22T06:24:05.012Z,14.34
2022-10-22T06:25:05.008Z,14.31
2022-10-22T06:26:04.991Z,14.34
2022-10-22T06:27:05.024Z,14.31
2022-10-22T06:28:04.964Z,14.30
2022-10-22T06:29:04.984Z,14.28
2022-10-22T06:30:04.943Z,14.31
2022-10-22T06:31:04.937Z,14.33
2022-10-22T06:32:04.919Z,14.34
2022-10-22T06:33:04.917Z,14.27
2022-10-22T06:34:04.932Z,14.33
2022-10-22T06:35:04.892Z,14.30
2022-10-22T06:36:07.398Z,14.30
2022-10-22T06:37:04.865Z,14.30
2022-10-22T06:38:04.859Z,14.33
2022-10-22T06:39:04.886Z,14.28
2022-10-22T06:40:04.835Z,14.33
2022-10-22T06:41:04.835Z,14.33
2022-10-22T06:42:04.829Z,14.28
2022-10-22T06:43:04.855Z,14.33
2022-10-22T06:44:04.809Z,14.36
2022-10-22T06:45:04.790Z,14.31
2022-10-22T06:46:04.772Z,14.28
2022-10-22T06:47:04.761Z,14.31
2022-10-22T06:48:04.790Z,14.30
2022-10-22T06:49:04.764Z,14.33
2022-10-22T06:50:04.740Z,14.28
2022-10-22T06:51:04.719Z,14.26
2022-10-22T06:52:04.701Z,14.28
2022-10-22T06:53:04.691Z,14.30
2022-10-22T06:54:04.711Z,14.26
2022-10-22T06:55:04.709Z,14.30
2022-10-22T06:56:04.661Z,14.28
2022-10-22T06:57:04.661Z,14.30
2022-10-22T06:58:04.640Z,14.23
2022-10-22T06:59:04.647Z,14.31
2022-10-22T07:00:04.665Z,14.33
2022-10-22T07:01:04.688Z,14.30
2022-10-22T07:02:04.637Z,14.31
2022-10-22T07:03:04.601Z,14.36
2022-10-22T07:04:04.573Z,14.26
2022-10-22T07:05:04.592Z,14.31
2022-10-22T07:06:04.561Z,14.34
2022-10-22T07:07:04.549Z,14.30
2022-10-22T07:08:04.535Z,14.40
2022-10-22T07:09:04.670Z,14.33
2022-10-22T07:10:04.545Z,14.30
2022-10-22T07:11:04.497Z,14.31
2022-10-22T07:12:04.488Z,14.36
2022-10-22T07:13:04.502Z,14.34
2022-10-22T07:14:04.475Z,14.36
2022-10-22T07:15:04.498Z,14.34
2022-10-22T07:16:04.444Z,14.34
2022-10-22T07:17:04.437Z,14.36
2022-10-22T07:18:04.421Z,14.38
2022-10-22T07:19:04.410Z,14.44
2022-10-22T07:20:04.441Z,14.44
2022-10-22T07:21:04.396Z,14.40
2022-10-22T07:22:04.373Z,14.38
2022-10-22T07:23:04.368Z,14.44
2022-10-22T07:24:04.384Z,14.40
2022-10-22T07:25:07.348Z,14.41
2022-10-22T07:26:04.414Z,14.48
2022-10-22T07:27:06.892Z,14.41
2022-10-22T07:28:04.319Z,14.36
2022-10-22T07:29:04.304Z,14.51
2022-10-22T07:30:04.314Z,14.51
2022-10-22T07:31:04.295Z,14.52
2022-10-22T07:32:04.271Z,14.45
2022-10-22T07:33:04.258Z,14.52
2022-10-22T07:34:04.262Z,14.56
2022-10-22T07:35:04.266Z,14.52
2022-10-22T07:36:04.247Z,14.59
2022-10-22T07:37:04.210Z,14.51
2022-10-22T07:38:04.226Z,14.51
2022-10-22T07:39:04.199Z,14.52
2022-10-22T07:40:04.326Z,14.56
2022-10-22T07:41:04.232Z,14.56
2022-10-22T07:42:04.159Z,14.53
2022-10-22T07:43:04.153Z,14.61
2022-10-22T07:44:04.140Z,14.58
2022-10-22T07:45:04.136Z,14.56
2022-10-22T07:46:04.132Z,14.59
2022-10-22T07:47:04.124Z,14.63
2022-10-22T07:48:04.143Z,14.64
2022-10-22T07:49:04.088Z,14.61
2022-10-22T07:50:04.084Z,14.66
2022-10-22T07:51:04.067Z,14.71
2022-10-22T07:52:04.054Z,14.70
2022-10-22T07:53:04.062Z,14.73
2022-10-22T07:54:04.047Z,14.66
2022-10-22T07:55:04.026Z,14.77
2022-10-22T07:56:04.008Z,14.85
2022-10-22T07:57:04.020Z,14.73
2022-10-22T07:58:03.988Z,14.74
2022-10-22T07:59:04.015Z,14.85
2022-10-22T08:00:03.978Z,14.85
2022-10-22T08:01:03.994Z,14.77
2022-10-22T08:02:03.945Z,14.90
2022-10-22T08:03:03.954Z,14.87
2022-10-22T08:04:03.957Z,14.89
2022-10-22T08:05:03.917Z,14.95
2022-10-22T08:06:03.941Z,14.97
2022-10-22T08:07:03.907Z,14.96
2022-10-22T08:08:03.880Z,14.99
2022-10-22T08:09:03.937Z,15.01
2022-10-22T08:10:03.891Z,15.01
2022-10-22T08:11:03.888Z,15.04
2022-10-22T08:12:03.830Z,15.03
2022-10-22T08:13:03.822Z,15.03
2022-10-22T08:14:03.849Z,15.08
2022-10-22T08:15:03.801Z,15.08
2022-10-22T08:16:03.822Z,15.04
2022-10-22T08:17:03.789Z,15.05
2022-10-22T08:18:03.777Z,15.15
2022-10-22T08:19:03.800Z,15.07
2022-10-22T08:20:03.759Z,15.15
2022-10-22T08:21:03.778Z,15.11
2022-10-22T08:22:03.749Z,15.19
2022-10-22T08:23:03.710Z,15.14
2022-10-22T08:24:03.738Z,15.20
2022-10-22T08:25:03.746Z,15.17
2022-10-22T08:26:03.692Z,15.22
2022-10-22T08:27:03.674Z,15.15
2022-10-22T08:28:03.675Z,15.17
2022-10-22T08:29:03.649Z,15.17
2022-10-22T08:30:03.647Z,15.22
2022-10-22T08:31:03.625Z,15.29
2022-10-22T08:32:03.615Z,15.22
2022-10-22T08:33:03.628Z,15.30
2022-10-22T08:34:03.592Z,15.29
2022-10-22T08:35:03.598Z,15.29
2022-10-22T08:36:03.595Z,15.32
2022-10-22T08:37:03.567Z,15.30
2022-10-22T08:38:03.581Z,15.30
2022-10-22T08:39:03.544Z,15.30
2022-10-22T08:40:03.534Z,15.30
2022-10-22T08:41:03.516Z,15.35
2022-10-22T08:42:03.526Z,15.33
2022-10-22T08:43:03.527Z,15.40
2022-10-22T08:44:03.542Z,15.35
2022-10-22T08:45:03.482Z,15.44
2022-10-22T08:46:03.472Z,15.41
2022-10-22T08:47:03.462Z,15.43
2022-10-22T08:48:03.470Z,15.45
2022-10-22T08:49:03.487Z,15.41
2022-10-22T08:50:03.435Z,15.44
2022-10-22T08:51:03.435Z,15.40
2022-10-22T08:52:03.402Z,15.50
2022-10-22T08:53:03.386Z,15.47
2022-10-22T08:54:03.424Z,15.41
2022-10-22T08:55:03.363Z,15.41
2022-10-22T08:56:03.370Z,15.50
2022-10-22T08:57:03.349Z,15.54
2022-10-22T08:58:03.360Z,15.44
2022-10-22T08:59:03.326Z,15.51
2022-10-22T09:00:03.344Z,15.54
2022-10-22T09:01:03.302Z,15.41
2022-10-22T09:02:03.296Z,15.54
2022-10-22T09:03:03.315Z,15.54
2022-10-22T09:04:03.285Z,15.51
2022-10-22T09:05:03.274Z,15.54
2022-10-22T09:06:03.300Z,15.45
2022-10-22T09:07:03.265Z,15.59
2022-10-22T09:08:03.267Z,15.59
2022-10-22T09:09:03.336Z,15.54
2022-10-22T09:10:03.211Z,15.58
2022-10-22T09:11:03.209Z,15.59
2022-10-22T09:12:03.220Z,15.59
2022-10-22T09:13:03.187Z,15.60
2022-10-22T09:14:03.243Z,15.54
2022-10-22T09:15:03.187Z,15.60
2022-10-22T09:16:03.168Z,15.60
2022-10-22T09:17:03.138Z,15.65
2022-10-22T09:18:03.128Z,15.63
2022-10-22T09:19:03.113Z,15.63
2022-10-22T09:20:03.114Z,15.72
2022-10-22T09:21:03.119Z,15.76
2022-10-22T09:22:03.102Z,15.76
2022-10-22T09:23:03.092Z,15.70
2022-10-22T09:24:03.068Z,15.73
2022-10-22T09:25:03.049Z,15.76
2022-10-22T09:26:03.069Z,15.77
2022-10-22T09:27:03.060Z,15.81
2022-10-22T09:28:03.024Z,15.78
2022-10-22T09:29:03.023Z,15.78
2022-10-22T09:30:03.021Z,15.81
2022-10-22T09:31:03.028Z,15.80
2022-10-22T09:32:03.002Z,15.76
2022-10-22T09:33:02.957Z,15.80
2022-10-22T09:34:02.950Z,15.83
2022-10-22T09:35:02.935Z,15.85
2022-10-22T09:36:02.930Z,15.85
2022-10-22T09:37:02.989Z,15.87
2022-10-22T09:38:02.906Z,15.81
2022-10-22T09:39:03.060Z,15.88
2022-10-22T09:40:02.885Z,15.91
2022-10-22T09:41:02.997Z,15.83
2022-10-22T09:42:02.895Z,15.87
2022-10-22T09:43:02.863Z,16.00
2022-10-22T09:44:02.845Z,16.00
2022-10-22T09:45:02.835Z,15.99
2022-10-22T09:46:02.853Z,16.03
2022-10-22T09:47:02.814Z,15.99
2022-10-22T09:48:02.929Z,16.06
2022-10-22T09:49:02.794Z,16.02
2022-10-22T09:50:02.779Z,16.00
2022-10-22T09:51:02.767Z,16.03
2022-10-22T09:52:02.791Z,16.13
2022-10-22T09:53:02.746Z,16.13
2022-10-22T09:54:02.742Z,16.05
2022-10-22T09:55:02.748Z,16.17
2022-10-22T09:56:02.738Z,16.18
2022-10-22T09:57:02.722Z,16.17
2022-10-22T09:58:02.696Z,16.17
2022-10-22T09:59:02.707Z,16.16
2022-10-22T10:00:02.679Z,16.21
2022-10-22T10:01:02.802Z,16.21
2022-10-22T10:02:13.668Z,16.24
2022-10-22T10:03:03.692Z,16.18
2022-10-22T10:04:04.556Z,16.25
2022-10-22T10:05:03.621Z,16.34
2022-10-22T10:06:05.064Z,16.32
2022-10-22T10:07:02.590Z,16.29
2022-10-22T10:08:02.603Z,16.26
2022-10-22T10:09:02.654Z,16.37
2022-10-22T10:10:02.565Z,16.34
2022-10-22T10:11:02.571Z,16.34
2022-10-22T10:12:02.583Z,16.37
2022-10-22T10:13:02.519Z,16.39
2022-10-22T10:14:02.525Z,16.42
2022-10-22T10:15:02.518Z,16.44
2022-10-22T10:16:02.500Z,16.39
2022-10-22T10:17:02.510Z,16.46
2022-10-22T10:18:02.478Z,16.47
2022-10-22T10:19:02.473Z,16.49
2022-10-22T10:20:04.065Z,16.51
2022-10-22T10:21:02.649Z,16.51
2022-10-22T10:22:02.453Z,16.47
2022-10-22T10:23:02.412Z,16.57
2022-10-22T10:24:02.403Z,16.59
2022-10-22T10:25:02.398Z,16.59
2022-10-22T10:26:02.416Z,16.62
2022-10-22T10:27:02.413Z,16.52
2022-10-22T10:28:02.464Z,16.59
2022-10-22T10:29:02.351Z,16.64
2022-10-22T10:30:02.367Z,16.62
2022-10-22T10:31:02.341Z,16.62
2022-10-22T10:32:02.347Z,16.69
2022-10-22T10:33:02.311Z,16.64
2022-10-22T10:34:02.312Z,16.62
2022-10-22T10:35:02.281Z,16.65
2022-10-22T10:36:02.272Z,16.64
2022-10-22T10:37:02.258Z,16.69
2022-10-22T10:38:02.282Z,16.74
2022-10-22T10:39:02.254Z,16.67
2022-10-22T10:40:02.259Z,16.73
2022-10-22T10:41:02.250Z,16.80
2022-10-22T10:42:02.206Z,16.76
2022-10-22T10:43:02.214Z,16.84
2022-10-22T10:44:02.185Z,16.79
2022-10-22T10:45:02.185Z,16.73
2022-10-22T10:46:02.216Z,16.83
2022-10-22T10:47:02.154Z,16.84
2022-10-22T10:48:02.154Z,16.90
2022-10-22T10:49:02.155Z,16.88
2022-10-22T10:50:02.117Z,16.92
2022-10-22T10:51:02.143Z,16.90
2022-10-22T10:52:02.093Z,16.90
2022-10-22T10:53:02.096Z,16.91
2022-10-22T10:54:02.090Z,16.95
2022-10-22T10:55:02.070Z,16.95
2022-10-22T10:56:02.106Z,17.01
2022-10-22T10:57:02.098Z,16.98
2022-10-22T10:58:02.081Z,16.97
2022-10-22T10:59:02.050Z,17.06
2022-10-22T11:00:02.012Z,17.04
2022-10-22T11:01:02.013Z,17.07
2022-10-22T11:02:02.019Z,17.13
2022-10-22T11:03:01.986Z,17.06
2022-10-22T11:04:01.984Z,17.14
2022-10-22T11:05:01.952Z,17.16
2022-10-22T11:06:01.958Z,17.16
2022-10-22T11:07:11.161Z,17.13
2022-10-22T11:08:02.925Z,17.17
2022-10-22T11:09:02.011Z,17.22
2022-10-22T11:10:01.903Z,17.17
2022-10-22T11:11:01.912Z,17.19
2022-10-22T11:12:01.902Z,17.31
2022-10-22T11:13:01.870Z,17.31
2022-10-22T11:14:01.898Z,17.27
2022-10-22T11:15:01.908Z,17.30
2022-10-22T11:16:01.864Z,17.37
2022-10-22T11:17:01.858Z,17.35
2022-10-22T11:18:01.816Z,17.37
2022-10-22T11:19:01.811Z,17.43
2022-10-22T11:20:01.819Z,17.45
2022-10-22T11:21:01.832Z,17.41
2022-10-22T11:22:01.795Z,17.47
2022-10-22T11:23:19.017Z,17.45
2022-10-22T11:24:02.753Z,17.47
2022-10-22T11:25:01.748Z,17.53
2022-10-22T11:26:01.764Z,17.49
2022-10-22T11:27:01.765Z,17.62
2022-10-22T11:28:07.786Z,17.59
2022-10-22T11:29:02.698Z,17.66
2022-10-22T11:30:01.684Z,17.71
2022-10-22T11:31:01.707Z,17.62
2022-10-22T11:32:01.699Z,17.62
2022-10-22T11:33:01.680Z,17.63
2022-10-22T11:34:09.989Z,17.76
2022-10-22T11:35:02.632Z,17.73
2022-10-22T11:36:01.652Z,17.76
2022-10-22T11:37:01.612Z,17.79
2022-10-22T11:38:01.599Z,17.90
2022-10-22T11:39:01.590Z,17.83
2022-10-22T11:40:01.576Z,17.83
2022-10-22T11:41:01.578Z,17.86
2022-10-22T11:42:01.600Z,17.84
2022-10-22T11:43:01.618Z,17.94
2022-10-22T11:44:01.536Z,17.97
2022-10-22T11:45:01.546Z,18.01
2022-10-22T11:46:01.517Z,17.99
2022-10-22T11:47:01.549Z,18.06
2022-10-22T11:48:01.516Z,18.01
2022-10-22T11:49:01.501Z,18.13
2022-10-22T11:50:01.479Z,18.17
2022-10-22T11:51:01.467Z,18.21
2022-10-22T11:52:04.314Z,18.17
2022-10-22T11:53:01.551Z,18.21
2022-10-22T11:54:01.427Z,18.24
2022-10-22T11:55:01.418Z,18.28
2022-10-22T11:56:01.438Z,18.24
2022-10-22T11:57:01.401Z,18.31
2022-10-22T11:58:01.410Z,18.31
2022-10-22T11:59:01.398Z,18.26
2022-10-22T12:00:01.367Z,18.24
2022-10-22T12:01:01.349Z,18.31
2022-10-22T12:02:01.375Z,18.33
2022-10-22T12:03:01.349Z,18.39
2022-10-22T12:04:01.359Z,18.43
2022-10-22T12:05:01.313Z,18.45
2022-10-22T12:06:01.298Z,18.42
2022-10-22T12:07:01.287Z,18.39
2022-10-22T12:08:01.283Z,18.46
2022-10-22T12:09:01.456Z,18.57
2022-10-22T12:10:01.330Z,18.58
2022-10-22T12:11:01.256Z,18.54
2022-10-22T12:12:01.228Z,18.63
2022-10-22T12:13:01.242Z,18.71
2022-10-22T12:14:01.240Z,18.67
2022-10-22T12:15:01.234Z,18.70
2022-10-22T12:16:01.197Z,18.76
2022-10-22T12:17:01.219Z,18.81
2022-10-22T12:18:01.276Z,18.78
2022-10-22T12:19:01.225Z,18.89
2022-10-22T12:20:02.309Z,18.89
2022-10-22T12:21:01.248Z,18.79
2022-10-22T12:22:01.141Z,18.88
2022-10-22T12:23:01.111Z,18.88
2022-10-22T12:24:01.125Z,18.98
2022-10-22T12:25:01.090Z,18.94
2022-10-22T12:26:01.128Z,18.98
2022-10-22T12:27:01.095Z,19.07
2022-10-22T12:28:01.054Z,19.08
2022-10-22T12:29:01.048Z,19.09
2022-10-22T12:30:01.045Z,19.08
2022-10-22T12:31:01.021Z,19.08
2022-10-22T12:32:01.073Z,19.22
2022-10-22T12:33:01.009Z,19.22
2022-10-22T12:34:00.987Z,19.22
2022-10-22T12:35:01.003Z,19.26
2022-10-22T12:36:00.967Z,19.22
2022-10-22T12:37:00.980Z,19.35
2022-10-22T12:38:01.019Z,19.17
2022-10-22T12:39:00.939Z,19.34
2022-10-22T12:40:00.924Z,19.41
2022-10-22T12:41:00.917Z,19.41
2022-10-22T12:42:00.931Z,19.39
2022-10-22T12:43:00.965Z,19.41
2022-10-22T12:44:00.895Z,19.39
2022-10-22T12:45:00.879Z,19.45
2022-10-22T12:46:00.865Z,19.52
2022-10-22T12:47:00.892Z,19.56
2022-10-22T12:48:00.844Z,19.57
2022-10-22T12:49:00.828Z,19.53
2022-10-22T12:50:00.874Z,19.64
2022-10-22T12:51:00.828Z,19.60
2022-10-22T12:52:00.812Z,19.67
2022-10-22T12:53:00.791Z,19.62
2022-10-22T12:54:00.774Z,19.72
2022-10-22T12:55:00.770Z,19.67